createdAt,value
2019-04-21T00:00:15.092Z,102637.80
2019-04-21T00:01:16.543Z,102633.87
2019-04-21T00:02:26.430Z,102627.34
2019-04-21T00:03:27.518Z,102625.09
2019-04-21T00:04:40.817Z,102625.65
2019-04-21T00:05:52.941Z,102625.65
2019-04-21T00:07:01.252Z,102629.95
2019-04-21T00:07:59.142Z,102631.26
2019-04-21T00:09:02.445Z,102627.89
2019-04-21T00:10:09.518Z,102627.89
2019-04-21T00:11:18.460Z,102623.41
2019-04-21T00:12:13.788Z,102619.31
2019-04-21T00:13:12.196Z,102622.48
2019-04-21T00:14:17.001Z,102619.48
2019-04-21T00:15:19.442Z,102621.55
2019-04-21T00:16:12.592Z,102618.94
2019-04-21T00:17:17.544Z,102622.48
2019-04-21T00:18:29.650Z,102621.17
2019-04-21T00:19:39.498Z,102620.62
2019-04-21T00:20:49.531Z,102615.39
2019-04-21T00:21:53.501Z,102615.39
2019-04-21T00:23:05.792Z,102614.08
2019-04-21T00:24:26.526Z,102619.31
2019-04-21T00:25:32.241Z,102616.70
2019-04-21T00:26:36.488Z,102622.48
2019-04-21T00:27:44.236Z,102615.77
2019-04-21T00:28:58.152Z,102615.02
2019-04-21T00:29:52.044Z,102619.31
2019-04-21T00:30:57.350Z,102618.19
2019-04-21T00:31:56.029Z,102612.77
2019-04-21T00:32:53.991Z,102614.08
2019-04-21T00:33:49.785Z,102612.77
2019-04-21T00:35:00.395Z,102616.32
2019-04-21T00:36:05.089Z,102616.70
2019-04-21T00:37:11.026Z,102614.08
2019-04-21T00:38:25.172Z,102607.92
2019-04-21T00:39:36.339Z,102612.77
2019-04-21T00:40:35.246Z,102614.45
2019-04-21T00:41:40.219Z,102610.53
2019-04-21T00:42:41.584Z,102606.06
2019-04-21T00:43:39.660Z,102609.98
2019-04-21T00:44:39.867Z,102610.53
2019-04-21T00:45:43.229Z,102609.23
2019-04-21T00:46:51.311Z,102606.23
2019-04-21T00:48:03.949Z,102606.99
2019-04-21T00:49:01.628Z,102608.30
2019-04-21T00:50:10.983Z,102606.06
2019-04-21T00:51:25.018Z,102610.91
2019-04-21T00:52:56.311Z,102607.37
2019-04-21T00:54:04.434Z,102600.45
2019-04-21T00:55:16.672Z,102602.14
2019-04-21T00:56:15.632Z,102596.35
2019-04-21T00:57:22.063Z,102599.52
2019-04-21T00:58:26.921Z,102593.73
2019-04-21T00:59:25.931Z,102593.36
2019-04-21T01:00:42.478Z,102601.20
2019-04-21T01:01:29.886Z,102596.53
2019-04-21T01:02:43.132Z,102599.52
2019-04-21T01:03:37.312Z,102590.75
2019-04-21T01:04:42.828Z,102592.98
2019-04-21T01:05:47.000Z,102593.73
2019-04-21T01:06:48.590Z,102590.19
2019-04-21T01:07:50.812Z,102588.13
2019-04-21T01:08:55.723Z,102589.06
2019-04-21T01:09:54.055Z,102593.54
2019-04-21T01:10:52.817Z,102590.38
2019-04-21T01:12:08.084Z,102590.55
2019-04-21T01:13:18.382Z,102584.91
2019-04-21T01:14:25.974Z,102587.36
2019-04-21T01:15:26.136Z,102589.04
2019-04-21T01:16:30.230Z,102591.48
2019-04-21T01:17:27.794Z,102587.55
2019-04-21T01:18:32.939Z,102586.63
2019-04-21T01:19:37.350Z,102581.77
2019-04-21T01:20:20.743Z,102583.45
2019-04-21T01:21:23.015Z,102584.01
2019-04-21T01:22:25.244Z,102583.83
2019-04-21T01:23:27.584Z,102587.38
2019-04-21T01:24:34.505Z,102589.06
2019-04-21T01:25:43.678Z,102588.13
2019-04-21T01:26:47.097Z,102583.28
2019-04-21T01:27:59.011Z,102582.52
2019-04-21T01:29:01.633Z,102586.63
2019-04-21T01:30:14.742Z,102583.45
2019-04-21T01:31:10.912Z,102588.69
2019-04-21T01:32:25.519Z,102587.75
2019-04-21T01:33:26.273Z,102586.45
2019-04-21T01:34:28.838Z,102580.84
2019-04-21T01:35:25.638Z,102586.07
2019-04-21T01:36:33.701Z,102584.21
2019-04-21T01:37:44.065Z,102583.45
2019-04-21T01:38:52.488Z,102578.05
2019-04-21T01:39:46.947Z,102583.83
2019-04-21T01:40:53.080Z,102582.90
2019-04-21T01:41:57.051Z,102586.45
2019-04-21T01:43:07.756Z,102585.52
2019-04-21T01:44:19.707Z,102584.59
2019-04-21T01:45:18.891Z,102582.90
2019-04-21T01:46:13.912Z,102586.83
2019-04-21T01:47:23.061Z,102579.36
2019-04-21T01:48:24.469Z,102582.90
2019-04-21T01:49:24.261Z,102583.28
2019-04-21T01:50:36.552Z,102574.50
2019-04-21T01:51:45.430Z,102584.03
2019-04-21T01:52:51.428Z,102584.59
2019-04-21T01:54:06.420Z,102582.34
2019-04-21T01:55:41.384Z,102581.05
2019-04-21T01:56:56.952Z,102575.64
2019-04-21T01:58:08.169Z,102578.42
2019-04-21T01:59:08.518Z,102581.42
2019-04-21T02:00:13.615Z,102577.49
2019-04-21T02:01:31.724Z,102573.57
2019-04-21T02:02:36.002Z,102580.48
2019-04-21T02:04:44.912Z,102571.71
2019-04-21T02:05:49.541Z,102578.25
2019-04-21T02:06:50.540Z,102574.70
2019-04-21T02:07:51.687Z,102574.33
2019-04-21T02:08:53.182Z,102569.47
2019-04-21T02:10:07.808Z,102573.77
2019-04-21T02:11:05.140Z,102574.70
2019-04-21T02:12:12.319Z,102579.94
2019-04-21T02:13:09.116Z,102574.33
2019-04-21T02:14:20.341Z,102573.95
2019-04-21T02:15:23.632Z,102569.47
2019-04-21T02:16:23.868Z,102576.94
2019-04-21T02:17:45.946Z,102573.39
2019-04-21T02:18:27.325Z,102571.16
2019-04-21T02:19:31.318Z,102571.71
2019-04-21T02:20:32.771Z,102568.92
2019-04-21T02:21:39.465Z,102570.78
2019-04-21T02:23:07.309Z,102566.64
2019-04-21T02:23:53.812Z,102565.00
2019-04-21T02:25:57.488Z,102569.85
2019-04-21T02:27:09.888Z,102560.86
2019-04-21T02:28:12.498Z,102566.64
2019-04-21T02:29:19.533Z,102566.30
2019-04-21T02:30:29.632Z,102564.78
2019-04-21T02:31:26.587Z,102562.72
2019-04-21T02:32:42.079Z,102555.64
2019-04-21T02:33:45.742Z,102559.55
2019-04-21T02:36:53.599Z,102554.70
2019-04-21T02:39:08.255Z,102548.55
2019-04-21T02:40:04.942Z,102552.09
2019-04-21T02:40:57.406Z,102551.16
2019-04-21T02:42:22.272Z,102551.16
2019-04-21T02:43:13.487Z,102552.47
2019-04-21T02:44:16.627Z,102550.98
2019-04-21T02:46:40.049Z,102547.61
2019-04-21T02:47:36.713Z,102544.45
2019-04-21T02:49:45.270Z,102545.75
2019-04-21T02:50:37.610Z,102545.75
2019-04-21T02:51:42.493Z,102546.13
2019-04-21T02:52:46.301Z,102543.14
2019-04-21T02:54:28.609Z,102542.77
2019-04-21T02:58:08.057Z,102531.57
2019-04-21T02:59:37.491Z,102535.67
2019-04-21T03:00:32.245Z,102533.44
2019-04-21T03:01:56.826Z,102534.36
2019-04-21T03:03:16.154Z,102530.81
2019-04-21T03:07:22.742Z,102530.81
2019-04-21T03:08:34.253Z,102529.14
2019-04-21T03:09:32.101Z,102526.90
2019-04-21T03:11:44.727Z,102522.80
2019-04-21T03:12:37.743Z,102521.11
2019-04-21T03:13:48.730Z,102520.19
2019-04-21T03:15:59.119Z,102513.65
2019-04-21T03:16:55.607Z,102517.19
2019-04-21T03:18:04.845Z,102514.03
2019-04-21T03:19:06.679Z,102514.95
2019-04-21T03:20:14.790Z,102510.11
2019-04-21T03:21:19.047Z,102513.65
2019-04-21T03:22:20.979Z,102512.72
2019-04-21T03:23:31.998Z,102509.73
2019-04-21T03:24:32.879Z,102511.97
2019-04-21T03:26:36.605Z,102506.18
2019-04-21T03:28:39.663Z,102510.48
2019-04-21T03:29:54.367Z,102511.41
2019-04-21T03:32:28.429Z,102506.56
2019-04-21T03:33:23.787Z,102500.02
2019-04-21T03:37:16.790Z,102492.56
2019-04-21T03:38:22.285Z,102496.48
2019-04-21T03:39:17.916Z,102495.92
2019-04-21T03:40:18.605Z,102495.55
2019-04-21T03:41:31.663Z,102488.64
2019-04-21T03:43:54.333Z,102489.94
2019-04-21T03:44:43.127Z,102488.26
2019-04-21T03:47:04.478Z,102481.00
2019-04-21T03:47:59.159Z,102488.84
2019-04-21T03:49:04.894Z,102484.91
2019-04-21T03:51:07.739Z,102480.06
2019-04-21T03:52:11.510Z,102483.98
2019-04-21T03:54:18.118Z,102486.22
2019-04-21T03:55:50.419Z,102487.53
2019-04-21T03:56:47.010Z,102479.13
2019-04-21T03:57:46.317Z,102478.76
2019-04-21T03:59:38.481Z,102483.61
2019-04-21T04:01:04.201Z,102477.83
2019-04-21T04:02:18.647Z,102480.44
2019-04-21T04:03:45.574Z,102479.13
2019-04-21T04:04:47.552Z,102481.75
2019-04-21T04:06:08.046Z,102475.97
2019-04-21T04:07:49.901Z,102479.13
2019-04-21T04:10:07.761Z,102477.28
2019-04-21T04:12:11.325Z,102476.34
2019-04-21T04:13:15.754Z,102475.04
2019-04-21T04:14:23.355Z,102474.66
2019-04-21T04:15:31.206Z,102475.59
2019-04-21T04:16:26.104Z,102472.42
2019-04-21T04:18:52.962Z,102468.50
2019-04-21T04:19:44.634Z,102468.13
2019-04-21T04:20:42.550Z,102462.31
2019-04-21T04:22:55.312Z,102463.99
2019-04-21T04:24:16.946Z,102460.08
2019-04-21T04:25:07.428Z,102459.70
2019-04-21T04:26:09.476Z,102456.16
2019-04-21T04:27:20.940Z,102459.14
2019-04-21T04:28:19.506Z,102456.53
2019-04-21T04:29:20.351Z,102460.66
2019-04-21T04:30:25.351Z,102453.91
2019-04-21T04:31:35.463Z,102454.13
2019-04-21T04:32:30.683Z,102461.38
2019-04-21T04:34:41.231Z,102449.44
2019-04-21T04:35:52.408Z,102457.45
2019-04-21T04:36:58.385Z,102452.61
2019-04-21T04:38:07.218Z,102457.45
2019-04-21T04:39:29.807Z,102453.54
2019-04-21T04:40:38.368Z,102450.37
2019-04-21T04:44:39.381Z,102453.54
2019-04-21T04:45:18.121Z,102450.37
2019-04-21T04:46:17.873Z,102453.91
2019-04-21T04:50:42.761Z,102454.30
2019-04-21T04:51:56.347Z,102449.44
2019-04-21T04:52:38.015Z,102451.67
2019-04-21T04:53:45.898Z,102450.75
2019-04-21T04:59:23.284Z,102443.28
2019-04-21T05:01:21.627Z,102442.91
2019-04-21T05:04:35.522Z,102443.66
2019-04-21T05:05:49.659Z,102442.91
2019-04-21T05:06:42.745Z,102441.05
2019-04-21T05:07:46.509Z,102441.05
2019-04-21T05:09:59.798Z,102443.28
2019-04-21T05:13:02.319Z,102442.36
2019-04-21T05:14:09.930Z,102441.98
2019-04-21T05:16:18.558Z,102440.29
2019-04-21T05:17:25.280Z,102437.68
2019-04-21T05:18:25.156Z,102436.75
2019-04-21T05:19:22.865Z,102441.59
2019-04-21T05:21:37.550Z,102440.67
2019-04-21T05:22:50.362Z,102430.00
2019-04-21T05:23:31.589Z,102436.75
2019-04-21T05:24:33.250Z,102433.58
2019-04-21T05:25:37.720Z,102430.59
2019-04-21T05:26:43.298Z,102427.22
2019-04-21T05:27:42.909Z,102434.13
2019-04-21T05:28:44.598Z,102435.44
2019-04-21T05:29:58.701Z,102432.45
2019-04-21T05:31:26.815Z,102433.20
2019-04-21T05:32:58.367Z,102430.21
2019-04-21T05:35:39.226Z,102433.58
2019-04-21T05:37:14.373Z,102430.38
2019-04-21T05:38:16.775Z,102428.36
2019-04-21T05:39:33.617Z,102431.90
2019-04-21T05:40:36.927Z,102429.66
2019-04-21T05:41:36.225Z,102430.21
2019-04-21T05:42:45.854Z,102428.36
2019-04-21T05:43:51.658Z,102425.36
2019-04-21T05:45:04.373Z,102424.44
2019-04-21T05:46:23.400Z,102421.82
2019-04-21T05:47:15.797Z,102422.38
2019-04-21T05:49:52.397Z,102418.83
2019-04-21T05:50:55.305Z,102417.52
2019-04-21T05:51:58.372Z,102418.45
2019-04-21T05:53:00.833Z,102416.22
2019-04-21T05:54:14.983Z,102419.76
2019-04-21T05:55:18.058Z,102417.52
2019-04-21T05:56:23.634Z,102416.22
2019-04-21T05:57:23.613Z,102416.22
2019-04-21T05:58:27.240Z,102408.00
2019-04-21T05:59:32.346Z,102412.30
2019-04-21T06:00:54.914Z,102410.98
2019-04-21T06:01:47.113Z,102410.05
2019-04-21T06:02:56.091Z,102407.06
2019-04-21T06:03:52.707Z,102414.16
2019-04-21T06:06:00.736Z,102411.91
2019-04-21T06:07:05.772Z,102410.23
2019-04-21T06:08:07.027Z,102408.92
2019-04-21T06:09:13.018Z,102407.23
2019-04-21T06:10:08.921Z,102401.84
2019-04-21T06:11:21.014Z,102405.76
2019-04-21T06:12:21.292Z,102404.07
2019-04-21T06:13:29.009Z,102402.39
2019-04-21T06:14:30.472Z,102403.14
2019-04-21T06:15:41.545Z,102404.07
2019-04-21T06:16:43.912Z,102402.22
2019-04-21T06:17:45.625Z,102396.78
2019-04-21T06:18:48.617Z,102395.30
2019-04-21T06:19:49.370Z,102394.92
2019-04-21T06:20:55.104Z,102391.38
2019-04-21T06:21:51.599Z,102394.17
2019-04-21T06:22:57.895Z,102391.93
2019-04-21T06:24:03.841Z,102391.93
2019-04-21T06:25:32.822Z,102388.77
2019-04-21T06:26:26.894Z,102391.00
2019-04-21T06:27:15.881Z,102392.31
2019-04-21T06:28:19.203Z,102392.31
2019-04-21T06:29:23.728Z,102388.94
2019-04-21T06:30:35.412Z,102392.31
2019-04-21T06:32:05.543Z,102386.70
2019-04-21T06:32:49.185Z,102387.63
2019-04-21T06:33:41.685Z,102388.39
2019-04-21T06:34:59.143Z,102388.94
2019-04-21T06:36:31.915Z,102388.19
2019-04-21T06:37:39.650Z,102393.79
2019-04-21T06:38:54.486Z,102390.80
2019-04-21T06:40:01.869Z,102390.42
2019-04-21T06:40:57.098Z,102392.69
2019-04-21T06:41:53.121Z,102391.55
2019-04-21T06:43:11.638Z,102389.48
2019-04-21T06:45:12.045Z,102386.88
2019-04-21T06:46:10.970Z,102386.16
2019-04-21T06:47:24.647Z,102376.80
2019-04-21T06:48:18.583Z,102376.42
2019-04-21T06:49:13.142Z,102377.73
2019-04-21T06:50:31.594Z,102382.02
2019-04-21T06:52:45.947Z,102384.47
2019-04-21T06:53:45.990Z,102377.00
2019-04-21T06:54:42.569Z,102382.23
2019-04-21T06:55:43.520Z,102384.47
2019-04-21T06:56:51.587Z,102383.16
2019-04-21T06:57:51.470Z,102385.40
2019-04-21T06:58:55.897Z,102374.02
2019-04-21T06:59:55.500Z,102384.09
2019-04-21T07:01:03.879Z,102379.24
2019-04-21T07:02:30.639Z,102375.70
2019-04-21T07:03:29.420Z,102374.02
2019-04-21T07:04:29.593Z,102376.25
2019-04-21T07:05:24.704Z,102379.80
2019-04-21T07:06:27.507Z,102373.63
2019-04-21T07:07:28.185Z,102373.63
2019-04-21T07:08:37.985Z,102372.70
2019-04-21T07:09:40.275Z,102371.95
2019-04-21T07:10:38.505Z,102371.95
2019-04-21T07:11:41.228Z,102374.56
2019-04-21T07:12:48.263Z,102380.17
2019-04-21T07:14:01.741Z,102376.80
2019-04-21T07:14:54.715Z,102374.19
2019-04-21T07:16:04.661Z,102372.87
2019-04-21T07:17:05.075Z,102372.33
2019-04-21T07:18:05.637Z,102373.81
2019-04-21T07:19:25.744Z,102365.80
2019-04-21T07:20:15.895Z,102371.57
2019-04-21T07:21:21.872Z,102370.81
2019-04-21T07:22:24.643Z,102372.50
2019-04-21T07:23:32.243Z,102369.34
2019-04-21T07:24:35.496Z,102365.97
2019-04-21T07:25:37.053Z,102371.57
2019-04-21T07:26:36.872Z,102368.58
2019-04-21T07:27:46.857Z,102369.51
2019-04-21T07:28:56.264Z,102370.64
2019-04-21T07:29:56.201Z,102368.58
2019-04-21T07:31:00.532Z,102372.13
2019-04-21T07:32:06.548Z,102370.81
2019-04-21T07:33:22.119Z,102369.89
2019-04-21T07:34:16.013Z,102366.89
2019-04-21T07:35:17.139Z,102367.66
2019-04-21T07:36:24.989Z,102373.05
2019-04-21T07:37:20.790Z,102365.97
2019-04-21T07:38:21.195Z,102362.97
2019-04-21T07:39:27.140Z,102361.66
2019-04-21T07:40:29.123Z,102364.45
2019-04-21T07:41:34.094Z,102361.28
2019-04-21T07:42:38.517Z,102360.73
2019-04-21T07:43:40.964Z,102364.28
2019-04-21T07:44:44.121Z,102359.98
2019-04-21T07:45:50.149Z,102355.13
2019-04-21T07:46:50.454Z,102356.23
2019-04-21T07:48:01.644Z,102354.92
2019-04-21T07:49:32.879Z,102361.84
2019-04-21T07:50:48.805Z,102356.23
2019-04-21T07:52:12.673Z,102357.16
2019-04-21T07:53:24.342Z,102353.23
2019-04-21T07:54:33.587Z,102360.70
2019-04-21T07:56:19.987Z,102351.93
2019-04-21T07:57:33.221Z,102353.61
2019-04-21T07:58:47.936Z,102351.93
2019-04-21T07:59:57.793Z,102350.62
2019-04-21T08:00:56.287Z,102353.79
2019-04-21T08:01:55.002Z,102349.86
2019-04-21T08:02:57.234Z,102346.32
2019-04-21T08:03:59.513Z,102348.56
2019-04-21T08:05:16.038Z,102348.94
2019-04-21T08:06:26.840Z,102351.55
2019-04-21T08:07:14.803Z,102349.86
2019-04-21T08:08:12.031Z,102348.56
2019-04-21T08:09:22.933Z,102349.48
2019-04-21T08:10:21.215Z,102343.70
2019-04-21T08:11:28.279Z,102349.86
2019-04-21T08:12:24.664Z,102350.42
2019-04-21T08:13:39.224Z,102346.50
2019-04-21T08:14:59.976Z,102340.72
2019-04-21T08:15:44.625Z,102342.19
2019-04-21T08:16:51.130Z,102346.50
2019-04-21T08:18:09.244Z,102346.12
2019-04-21T08:18:52.373Z,102341.64
2019-04-21T08:19:53.902Z,102342.57
2019-04-21T08:21:01.280Z,102345.19
2019-04-21T08:22:12.735Z,102342.19
2019-04-21T08:23:13.143Z,102341.64
2019-04-21T08:24:18.281Z,102343.88
2019-04-21T08:25:19.472Z,102340.89
2019-04-21T08:26:24.575Z,102335.11
2019-04-21T08:27:32.087Z,102338.27
2019-04-21T08:28:31.988Z,102333.42
2019-04-21T08:30:36.260Z,102335.66
2019-04-21T08:31:48.586Z,102332.66
2019-04-21T08:33:55.375Z,102336.59
2019-04-21T08:35:08.536Z,102332.11
2019-04-21T08:36:13.026Z,102331.36
2019-04-21T08:36:57.232Z,102325.20
2019-04-21T08:38:08.631Z,102328.36
2019-04-21T08:39:06.548Z,102330.98
2019-04-21T08:40:17.434Z,102327.44
2019-04-21T08:41:21.307Z,102327.06
2019-04-21T08:42:25.398Z,102326.68
2019-04-21T08:43:36.730Z,102321.83
2019-04-21T08:44:33.355Z,102321.45
2019-04-21T08:45:35.359Z,102320.90
2019-04-21T08:46:39.212Z,102321.07
2019-04-21T08:47:45.774Z,102320.52
2019-04-21T08:48:53.575Z,102318.66
2019-04-21T08:49:47.325Z,102319.77
2019-04-21T08:52:00.719Z,102316.59
2019-04-21T08:52:59.791Z,102313.06
2019-04-21T08:54:09.195Z,102312.68
2019-04-21T08:55:42.890Z,102313.61
2019-04-21T08:56:46.776Z,102314.53
2019-04-21T08:58:08.027Z,102310.98
2019-04-21T09:00:57.423Z,102310.61
2019-04-21T09:02:18.165Z,102307.07
2019-04-21T09:03:35.782Z,102307.62
2019-04-21T09:04:39.244Z,102303.70
2019-04-21T09:05:45.520Z,102303.70
2019-04-21T09:07:52.520Z,102300.70
2019-04-21T09:08:58.214Z,102300.70
2019-04-21T09:09:57.535Z,102299.94
2019-04-21T09:11:04.187Z,102299.39
2019-04-21T09:12:04.318Z,102295.47
2019-04-21T09:13:15.275Z,102302.22
2019-04-21T09:14:13.641Z,102300.53
2019-04-21T09:15:18.911Z,102300.53
2019-04-21T09:16:20.780Z,102299.77
2019-04-21T09:17:20.578Z,102297.70
2019-04-21T09:18:22.910Z,102295.47
2019-04-21T09:19:44.618Z,102294.16
2019-04-21T09:21:45.529Z,102291.55
2019-04-21T09:22:50.565Z,102293.78
2019-04-21T09:23:52.251Z,102296.02
2019-04-21T09:24:52.118Z,102288.72
2019-04-21T09:26:00.410Z,102294.87
2019-04-21T09:26:57.899Z,102294.87
2019-04-21T09:28:06.990Z,102290.41
2019-04-21T09:29:03.321Z,102291.89
2019-04-21T09:30:00.327Z,102285.73
2019-04-21T09:31:04.493Z,102289.27
2019-04-21T09:32:04.914Z,102293.20
2019-04-21T09:33:07.485Z,102287.20
2019-04-21T09:34:14.295Z,102292.81
2019-04-21T09:35:15.470Z,102285.34
2019-04-21T09:36:20.166Z,102284.59
2019-04-21T09:37:36.686Z,102284.05
2019-04-21T09:38:34.177Z,102282.36
2019-04-21T09:39:31.276Z,102282.36
2019-04-21T09:40:37.202Z,102291.13
2019-04-21T09:41:39.453Z,102282.56
2019-04-21T09:42:50.333Z,102285.56
2019-04-21T09:43:50.590Z,102286.70
2019-04-21T09:44:53.806Z,102279.99
2019-04-21T09:45:54.234Z,102284.84
2019-04-21T09:47:01.248Z,102279.03
2019-04-21T09:48:06.175Z,102275.11
2019-04-21T09:49:09.518Z,102277.93
2019-04-21T09:50:08.537Z,102281.09
2019-04-21T09:51:13.065Z,102274.56
2019-04-21T09:52:21.033Z,102279.23
2019-04-21T09:53:26.911Z,102270.09
2019-04-21T09:54:28.495Z,102266.16
2019-04-21T09:55:39.117Z,102269.70
2019-04-21T09:56:40.624Z,102266.16
2019-04-21T09:57:43.326Z,102264.86
2019-04-21T09:58:45.756Z,102264.86
2019-04-21T09:59:48.824Z,102260.94
2019-04-21T10:01:00.031Z,102263.55
2019-04-21T10:01:58.896Z,102256.47
2019-04-21T10:03:00.603Z,102259.08
2019-04-21T10:04:01.760Z,102254.40
2019-04-21T10:05:02.112Z,102254.78
2019-04-21T10:06:04.483Z,102260.01
2019-04-21T10:07:08.974Z,102259.63
2019-04-21T10:08:10.677Z,102252.16
2019-04-21T10:09:14.922Z,102251.23
2019-04-21T10:10:17.237Z,102250.31
2019-04-21T10:11:20.957Z,102248.24
2019-04-21T10:12:23.538Z,102248.24
2019-04-21T10:13:25.875Z,102249.72
2019-04-21T10:14:28.695Z,102245.62
2019-04-21T10:15:30.932Z,102243.94
2019-04-21T10:16:59.972Z,102246.55
2019-04-21T10:18:06.351Z,102241.70
2019-04-21T10:19:08.890Z,102232.94
2019-04-21T10:20:11.828Z,102234.79
2019-04-21T10:21:15.323Z,102233.48
2019-04-21T10:22:21.134Z,102229.56
2019-04-21T10:23:23.580Z,102231.80
2019-04-21T10:24:26.406Z,102228.25
2019-04-21T10:25:28.746Z,102222.09
2019-04-21T10:26:30.985Z,102222.27
2019-04-21T10:27:33.207Z,102223.03
2019-04-21T10:28:35.474Z,102229.56
2019-04-21T10:29:41.259Z,102222.27
2019-04-21T10:30:42.624Z,102223.03
2019-04-21T10:31:45.082Z,102222.64
2019-04-21T10:32:48.371Z,102221.34
2019-04-21T10:33:50.715Z,102222.64
2019-04-21T10:34:52.946Z,102226.19
2019-04-21T10:35:55.268Z,102221.34
2019-04-21T10:36:58.587Z,102220.95
2019-04-21T10:38:13.110Z,102216.11
2019-04-21T10:39:06.014Z,102220.95
2019-04-21T10:40:09.549Z,102213.50
2019-04-21T10:41:12.008Z,102216.66
2019-04-21T10:42:15.409Z,102220.03
2019-04-21T10:43:21.673Z,102223.58
2019-04-21T10:44:23.041Z,102217.58
2019-04-21T10:45:25.419Z,102218.84
2019-04-21T10:46:28.765Z,102214.88
2019-04-21T10:47:31.317Z,102208.00
2019-04-21T10:48:34.976Z,102211.38
2019-04-21T10:49:37.487Z,102208.21
2019-04-21T10:50:41.066Z,102211.59
2019-04-21T10:51:43.467Z,102210.28
2019-04-21T10:53:03.259Z,102210.11
2019-04-21T10:54:06.258Z,102209.73
2019-04-21T10:55:28.913Z,102210.88
2019-04-21T10:56:21.845Z,102206.57
2019-04-21T10:57:22.180Z,102203.79
2019-04-21T10:58:34.054Z,102197.80
2019-04-21T10:59:37.199Z,102200.03
2019-04-21T11:00:39.933Z,102196.49
2019-04-21T11:01:43.028Z,102201.34
2019-04-21T11:02:48.854Z,102198.72
2019-04-21T11:03:58.575Z,102198.18
2019-04-21T11:05:00.976Z,102200.58
2019-04-21T11:06:03.429Z,102196.11
2019-04-21T11:07:25.622Z,102193.50
2019-04-21T11:08:32.256Z,102196.11
2019-04-21T11:09:30.030Z,102188.64
2019-04-21T11:10:32.266Z,102191.27
2019-04-21T11:11:34.497Z,102189.95
2019-04-21T11:12:39.296Z,102181.56
2019-04-21T11:13:40.946Z,102183.04
2019-04-21T11:14:43.351Z,102186.58
2019-04-21T11:15:45.590Z,102190.13
2019-04-21T11:16:49.419Z,102182.66
2019-04-21T11:17:52.309Z,102184.89
2019-04-21T11:18:55.901Z,102187.89
2019-04-21T11:19:59.139Z,102188.81
2019-04-21T11:21:02.809Z,102180.05
2019-04-21T11:22:05.360Z,102180.05
2019-04-21T11:23:08.040Z,102177.97
2019-04-21T11:24:10.331Z,102183.97
2019-04-21T11:25:12.894Z,102182.28
2019-04-21T11:26:16.039Z,102180.05
2019-04-21T11:27:19.126Z,102177.97
2019-04-21T11:28:22.772Z,102177.43
2019-04-21T11:29:26.255Z,102179.66
2019-04-21T11:30:29.753Z,102170.89
2019-04-21T11:31:33.348Z,102175.36
2019-04-21T11:32:36.988Z,102170.52
2019-04-21T11:33:39.579Z,102168.28
2019-04-21T11:34:43.053Z,102171.44
2019-04-21T11:35:45.570Z,102173.51
2019-04-21T11:36:48.111Z,102175.36
2019-04-21T11:37:50.395Z,102166.59
2019-04-21T11:39:22.056Z,102167.14
2019-04-21T11:40:17.634Z,102167.14
2019-04-21T11:41:19.426Z,102167.14
2019-04-21T11:42:41.775Z,102164.52
2019-04-21T11:43:45.922Z,102160.59
2019-04-21T11:44:49.366Z,102168.06
2019-04-21T11:45:52.598Z,102162.29
2019-04-21T11:46:56.245Z,102160.22
2019-04-21T11:48:12.325Z,102161.91
2019-04-21T11:49:15.820Z,102164.91
2019-04-21T11:50:19.018Z,102161.53
2019-04-21T11:51:22.656Z,102159.30
2019-04-21T11:52:25.114Z,102161.91
2019-04-21T11:53:28.609Z,102156.30
2019-04-21T11:54:31.101Z,102160.22
2019-04-21T11:55:37.086Z,102160.59
2019-04-21T11:56:37.241Z,102154.99
2019-04-21T11:57:44.616Z,102154.99
2019-04-21T11:58:43.955Z,102151.45
2019-04-21T11:59:47.919Z,102154.23
2019-04-21T12:00:54.109Z,102152.00
2019-04-21T12:01:57.256Z,102152.00
2019-04-21T12:02:59.610Z,102152.00
2019-04-21T12:04:03.304Z,102147.14
2019-04-21T12:05:05.651Z,102151.61
2019-04-21T12:06:09.049Z,102145.45
2019-04-21T12:07:11.535Z,102154.23
2019-04-21T12:08:23.093Z,102144.53
2019-04-21T12:09:18.851Z,102142.46
2019-04-21T12:10:21.636Z,102141.53
2019-04-21T12:11:25.130Z,102142.46
2019-04-21T12:12:27.686Z,102141.16
2019-04-21T12:13:30.090Z,102139.84
2019-04-21T12:14:32.515Z,102140.39
2019-04-21T12:15:36.789Z,102138.54
2019-04-21T12:16:39.230Z,102136.85
2019-04-21T12:17:41.794Z,102138.16
2019-04-21T12:18:45.134Z,102132.00
2019-04-21T12:19:48.547Z,102132.38
2019-04-21T12:20:51.601Z,102128.63
2019-04-21T12:22:05.298Z,102125.47
2019-04-21T12:22:58.016Z,102126.94
2019-04-21T12:24:00.687Z,102122.47
2019-04-21T12:25:03.483Z,102119.86
2019-04-21T12:26:07.312Z,102117.23
2019-04-21T12:27:09.925Z,102118.17
2019-04-21T12:28:12.258Z,102118.33
2019-04-21T12:29:14.606Z,102113.31
2019-04-21T12:30:20.016Z,102109.39
2019-04-21T12:31:41.270Z,102109.02
2019-04-21T12:32:53.902Z,102102.48
2019-04-21T12:33:58.215Z,102096.33
2019-04-21T12:35:01.690Z,102099.86
2019-04-21T12:36:06.157Z,102102.48
2019-04-21T12:37:08.805Z,102101.72
2019-04-21T12:38:11.137Z,102095.18
2019-04-21T12:39:14.994Z,102093.33
2019-04-21T12:40:17.265Z,102094.64
2019-04-21T12:41:20.384Z,102094.80
2019-04-21T12:42:22.921Z,102092.02
2019-04-21T12:43:26.545Z,102089.02
2019-04-21T12:44:29.532Z,102085.64
2019-04-21T12:45:31.923Z,102088.27
2019-04-21T12:46:34.188Z,102082.48
2019-04-21T12:47:37.784Z,102088.64
2019-04-21T12:48:40.189Z,102089.19
2019-04-21T12:49:43.725Z,102087.87
2019-04-21T12:50:46.051Z,102079.88
2019-04-21T12:51:48.422Z,102080.96
2019-04-21T12:52:51.656Z,102086.95
2019-04-21T12:53:54.091Z,102082.11
2019-04-21T12:54:57.530Z,102082.65
2019-04-21T12:56:00.077Z,102080.04
2019-04-21T12:57:03.355Z,102077.42
2019-04-21T12:58:05.737Z,102075.73
2019-04-21T12:59:08.161Z,102069.58
2019-04-21T13:00:13.167Z,102068.27
2019-04-21T13:01:16.690Z,102066.58
2019-04-21T13:02:19.861Z,102063.04
2019-04-21T13:03:23.486Z,102061.35
2019-04-21T13:04:26.060Z,102054.81
2019-04-21T13:05:29.523Z,102056.13
2019-04-21T13:06:31.919Z,102054.81
2019-04-21T13:07:35.340Z,102050.89
2019-04-21T13:08:45.687Z,102048.82
2019-04-21T13:09:42.091Z,102051.44
2019-04-21T13:10:44.459Z,102048.44
2019-04-21T13:11:46.993Z,102047.88
2019-04-21T13:12:50.052Z,102041.88
2019-04-21T13:13:53.561Z,102038.34
2019-04-21T13:14:57.916Z,102040.41
2019-04-21T13:16:01.043Z,102035.53
2019-04-21T13:17:03.526Z,102035.19
2019-04-21T13:18:05.753Z,102032.19
2019-04-21T13:19:09.237Z,102036.48
2019-04-21T13:20:11.751Z,102033.30
2019-04-21T13:21:14.111Z,102039.45
2019-04-21T13:22:16.503Z,102027.14
2019-04-21T13:23:18.964Z,102028.06
2019-04-21T13:24:21.982Z,102025.45
2019-04-21T13:25:27.721Z,102023.96
2019-04-21T13:26:37.253Z,102029.89